createdAt,value
2019-02-10T00:00:33.752Z,90.30
2019-02-10T00:03:21.547Z,90.40
2019-02-10T00:06:10.350Z,90.60
2019-02-10T00:08:58.719Z,90.50
2019-02-10T00:11:46.982Z,90.70
2019-02-10T00:14:35.347Z,90.90
2019-02-10T00:17:22.858Z,91.00
2019-02-10T00:20:11.085Z,90.90
2019-02-10T00:22:58.970Z,90.90
2019-02-10T00:25:47.486Z,91.00
2019-02-10T00:28:35.849Z,90.90
2019-02-10T00:31:24.159Z,90.80
2019-02-10T00:34:12.352Z,90.80
2019-02-10T00:37:00.571Z,90.90
2019-02-10T00:39:48.831Z,90.90
2019-02-10T00:42:37.664Z,91.20
2019-02-10T00:45:26.740Z,91.40
2019-02-10T00:48:15.122Z,91.60
2019-02-10T00:51:03.310Z,91.70
2019-02-10T00:53:51.956Z,91.80
2019-02-10T00:56:45.438Z,91.40
2019-02-10T00:59:33.670Z,91.40
2019-02-10T01:02:21.334Z,91.20
2019-02-10T01:05:16.202Z,91.00
2019-02-10T01:08:05.036Z,90.90
2019-02-10T01:10:53.526Z,91.00
2019-02-10T01:13:42.031Z,91.30
2019-02-10T01:16:30.646Z,91.60
2019-02-10T01:19:19.215Z,91.90
2019-02-10T01:22:08.472Z,91.90
2019-02-10T01:24:56.973Z,91.70
2019-02-10T01:27:44.728Z,91.80
2019-02-10T01:30:33.244Z,91.90
2019-02-10T01:33:21.391Z,91.90
2019-02-10T01:36:11.673Z,91.90
2019-02-10T01:38:59.807Z,91.90
2019-02-10T01:41:48.346Z,91.80
2019-02-10T01:44:36.649Z,91.70
2019-02-10T01:47:25.470Z,91.60
2019-02-10T01:50:14.062Z,91.40
2019-02-10T01:53:02.183Z,91.30
2019-02-10T01:55:50.807Z,91.50
2019-02-10T01:58:39.326Z,91.70
2019-02-10T02:01:27.991Z,91.90
2019-02-10T02:04:15.709Z,92.00
2019-02-10T02:07:04.178Z,92.00
2019-02-10T02:09:53.178Z,92.10
2019-02-10T02:12:41.052Z,92.20
2019-02-10T02:15:29.123Z,92.10
2019-02-10T02:18:17.220Z,91.90
2019-02-10T02:21:05.326Z,91.70
2019-02-10T02:23:53.563Z,91.80
2019-02-10T02:26:41.766Z,91.90
2019-02-10T02:29:29.600Z,91.60
2019-02-10T02:32:17.814Z,91.60
2019-02-10T02:35:06.897Z,91.50
2019-02-10T02:37:55.237Z,91.40
2019-02-10T02:40:43.400Z,91.70
2019-02-10T02:43:34.743Z,91.70
2019-02-10T02:46:23.076Z,91.60
2019-02-10T02:49:10.334Z,91.60
2019-02-10T02:51:59.294Z,91.80
2019-02-10T02:54:47.447Z,91.80
2019-02-10T02:57:36.126Z,91.90
2019-02-10T03:00:24.109Z,91.90
2019-02-10T03:03:12.617Z,92.20
2019-02-10T03:06:00.797Z,92.20
2019-02-10T03:08:49.460Z,92.50
2019-02-10T03:11:38.269Z,92.50
2019-02-10T03:14:25.915Z,92.70
2019-02-10T03:17:14.316Z,92.70
2019-02-10T03:20:02.263Z,92.60
2019-02-10T03:22:50.328Z,92.70
2019-02-10T03:25:38.961Z,92.80
2019-02-10T03:28:28.035Z,92.90
2019-02-10T03:31:16.548Z,93.10
2019-02-10T03:34:05.698Z,93.30
2019-02-10T03:36:53.991Z,93.30
2019-02-10T03:39:41.812Z,93.40
2019-02-10T03:42:30.492Z,93.40
2019-02-10T03:45:18.740Z,93.40
2019-02-10T03:48:07.082Z,93.10
2019-02-10T03:50:55.600Z,92.60
2019-02-10T03:53:43.984Z,93.30
2019-02-10T03:56:32.651Z,93.80
2019-02-10T03:59:20.898Z,93.50
2019-02-10T04:02:09.714Z,93.40
2019-02-10T04:04:57.518Z,93.40
2019-02-10T04:07:45.531Z,93.50
2019-02-10T04:10:33.366Z,93.50
2019-02-10T04:13:21.450Z,93.60
2019-02-10T04:16:09.461Z,93.70
2019-02-10T04:18:57.863Z,93.70
2019-02-10T04:21:46.090Z,93.60
2019-02-10T04:24:34.087Z,93.80
2019-02-10T04:27:22.599Z,93.70
2019-02-10T04:30:10.773Z,93.00
2019-02-10T04:33:00.076Z,93.60
2019-02-10T04:35:48.387Z,92.90
2019-02-10T04:38:36.185Z,93.80
2019-02-10T04:41:23.949Z,93.20
2019-02-10T04:44:12.697Z,92.90
2019-02-10T04:47:00.451Z,92.80
2019-02-10T04:49:48.479Z,92.70
2019-02-10T04:52:36.769Z,92.90
2019-02-10T04:55:25.641Z,92.90
2019-02-10T04:58:14.082Z,92.90
2019-02-10T05:01:01.959Z,92.90
2019-02-10T05:03:50.335Z,92.90
2019-02-10T05:06:38.834Z,92.80
2019-02-10T05:09:26.979Z,92.80
2019-02-10T05:12:14.946Z,93.70
2019-02-10T05:15:02.763Z,93.00
2019-02-10T05:17:50.849Z,92.90
2019-02-10T05:20:39.349Z,93.00
2019-02-10T05:23:27.648Z,93.60
2019-02-10T05:26:15.640Z,93.70
2019-02-10T05:29:03.588Z,93.70
2019-02-10T05:31:52.009Z,93.60
2019-02-10T05:34:40.228Z,93.70
2019-02-10T05:37:28.727Z,93.10
2019-02-10T05:40:17.189Z,92.90
2019-02-10T05:43:05.215Z,92.70
2019-02-10T05:45:53.847Z,92.80
2019-02-10T05:48:42.385Z,92.90
2019-02-10T05:51:30.329Z,93.50
2019-02-10T05:54:18.759Z,93.10
2019-02-10T05:57:07.035Z,93.50
2019-02-10T05:59:55.217Z,93.60
2019-02-10T06:02:43.183Z,93.70
2019-02-10T06:05:32.427Z,93.00
2019-02-10T06:08:20.987Z,93.00
2019-02-10T06:11:09.872Z,93.40
2019-02-10T06:13:58.124Z,93.70
2019-02-10T06:16:45.638Z,93.70
2019-02-10T06:19:33.703Z,93.50
2019-02-10T06:22:22.371Z,92.90
2019-02-10T06:25:10.333Z,92.90
2019-02-10T06:27:58.801Z,92.70
2019-02-10T06:30:46.650Z,92.50
2019-02-10T06:33:35.166Z,92.40
2019-02-10T06:36:23.490Z,92.40
2019-02-10T06:39:11.151Z,92.60
2019-02-10T06:41:59.082Z,92.60
2019-02-10T06:44:47.694Z,92.50
2019-02-10T06:47:36.114Z,92.60
2019-02-10T06:50:24.511Z,93.50
2019-02-10T06:53:12.571Z,92.70
2019-02-10T06:56:00.363Z,92.60
2019-02-10T06:58:48.625Z,92.60
2019-02-10T07:01:47.016Z,92.50
2019-02-10T07:04:35.538Z,92.50
2019-02-10T07:07:23.725Z,92.50
2019-02-10T07:10:12.343Z,92.60
2019-02-10T07:13:00.598Z,92.30
2019-02-10T07:16:24.834Z,92.50
2019-02-10T07:19:49.182Z,92.50
2019-02-10T07:23:21.489Z,92.50
2019-02-10T07:26:16.159Z,93.20
2019-02-10T07:29:58.805Z,93.30
2019-02-10T07:32:53.758Z,92.40
2019-02-10T07:35:57.969Z,92.10
2019-02-10T07:39:09.201Z,92.20
2019-02-10T07:42:51.145Z,92.10
2019-02-10T07:46:03.822Z,91.90
2019-02-10T07:49:21.754Z,91.50
2019-02-10T07:52:28.901Z,91.30
2019-02-10T07:55:38.225Z,91.40
2019-02-10T07:59:35.818Z,91.20
2019-02-10T08:03:05.952Z,91.30
2019-02-10T08:06:29.050Z,91.20
2019-02-10T08:09:31.400Z,91.30
2019-02-10T08:12:32.344Z,91.00
2019-02-10T08:19:04.252Z,91.20
2019-02-10T08:22:07.170Z,90.80
2019-02-10T08:25:40.602Z,90.80
2019-02-10T08:28:39.685Z,90.80
2019-02-10T08:32:04.846Z,90.60
2019-02-10T08:35:43.438Z,90.20
2019-02-10T08:38:55.655Z,90.00
2019-02-10T08:45:27.639Z,90.00
2019-02-10T08:48:47.503Z,90.20
2019-02-10T08:52:13.549Z,90.50
2019-02-10T08:55:02.535Z,90.70
2019-02-10T08:57:51.641Z,91.20
2019-02-10T09:06:28.233Z,91.80
2019-02-10T09:09:17.230Z,91.70
2019-02-10T09:12:06.774Z,92.00
2019-02-10T09:14:55.292Z,92.10
2019-02-10T09:17:43.907Z,92.30
2019-02-10T09:20:31.749Z,92.00
2019-02-10T09:23:20.953Z,92.10
2019-02-10T09:26:09.518Z,92.10
2019-02-10T09:28:58.174Z,92.30
2019-02-10T09:31:46.570Z,92.10
2019-02-10T09:34:35.795Z,92.20
2019-02-10T09:37:25.599Z,92.50
2019-02-10T09:40:14.308Z,92.80
2019-02-10T09:43:03.133Z,93.00
2019-02-10T09:45:51.739Z,93.00
2019-02-10T09:48:41.423Z,93.40
2019-02-10T09:51:30.822Z,93.40
2019-02-10T09:54:19.514Z,93.40
2019-02-10T09:57:08.458Z,93.40
2019-02-10T09:59:56.927Z,93.20
2019-02-10T10:02:45.915Z,92.80
2019-02-10T10:05:34.705Z,92.80
2019-02-10T10:08:23.190Z,92.50
2019-02-10T10:11:12.225Z,92.60
2019-02-10T10:14:00.725Z,92.40
2019-02-10T10:16:48.997Z,92.30
2019-02-10T10:19:37.574Z,92.10
2019-02-10T10:22:25.863Z,91.90
2019-02-10T10:25:14.579Z,91.80
2019-02-10T10:28:04.029Z,92.00
2019-02-10T10:30:52.978Z,92.00
2019-02-10T10:33:42.268Z,91.60
2019-02-10T10:36:30.572Z,91.30
2019-02-10T10:42:13.844Z,90.80
2019-02-10T10:45:03.358Z,90.70
2019-02-10T10:47:51.872Z,90.40
2019-02-10T10:50:40.994Z,90.40
2019-02-10T10:53:29.850Z,90.00
2019-02-10T10:56:17.251Z,89.30
2019-02-10T10:59:07.008Z,89.00
2019-02-10T11:01:55.902Z,87.80
2019-02-10T11:04:44.654Z,86.50
2019-02-10T11:07:32.617Z,85.20
2019-02-10T11:10:21.462Z,84.30
2019-02-10T11:13:10.234Z,81.30
2019-02-10T11:15:58.931Z,80.10
2019-02-10T11:18:47.397Z,78.30
2019-02-10T11:21:36.242Z,77.50
2019-02-10T11:24:28.753Z,77.60
2019-02-10T11:27:19.254Z,76.30
2019-02-10T11:30:09.502Z,75.60
2019-02-10T11:33:00.020Z,74.60
2019-02-10T11:35:48.250Z,73.80
2019-02-10T11:38:37.503Z,73.90
2019-02-10T11:41:25.302Z,73.10
2019-02-10T11:44:14.599Z,72.30
2019-02-10T11:47:03.210Z,72.40
2019-02-10T11:52:40.283Z,71.80
2019-02-10T11:55:29.968Z,71.30
2019-02-10T11:58:18.740Z,70.60
2019-02-10T12:01:07.842Z,70.90
2019-02-10T12:03:57.416Z,69.70
2019-02-10T12:06:45.706Z,69.70
2019-02-10T12:09:35.639Z,69.20
2019-02-10T12:12:25.533Z,68.60
2019-02-10T12:15:15.243Z,67.40
2019-02-10T12:18:06.315Z,68.70
2019-02-10T12:20:55.018Z,68.80
2019-02-10T12:23:43.541Z,67.60
2019-02-10T12:26:32.050Z,67.70
2019-02-10T12:29:21.463Z,66.90
2019-02-10T12:32:10.048Z,66.30
2019-02-10T12:35:00.137Z,66.60
2019-02-10T12:37:48.171Z,66.40
2019-02-10T12:40:36.727Z,65.90
2019-02-10T12:43:25.475Z,66.20
2019-02-10T12:46:14.615Z,65.60
2019-02-10T12:49:04.269Z,64.50
2019-02-10T12:51:53.307Z,65.10
2019-02-10T12:54:42.370Z,65.20
2019-02-10T12:57:30.615Z,65.10
2019-02-10T13:00:24.838Z,65.30
2019-02-10T13:03:14.874Z,65.60
2019-02-10T13:06:03.967Z,65.90
2019-02-10T13:08:53.695Z,65.50
2019-02-10T13:11:43.065Z,65.60
2019-02-10T13:14:32.294Z,66.20
2019-02-10T13:17:20.566Z,66.50
2019-02-10T13:20:09.331Z,65.80
2019-02-10T13:22:57.463Z,65.20
2019-02-10T13:25:45.718Z,65.00
2019-02-10T13:28:34.254Z,65.20
2019-02-10T13:31:23.498Z,65.00
2019-02-10T13:34:12.477Z,65.10
2019-02-10T13:37:01.769Z,64.70
2019-02-10T13:39:50.115Z,64.70
2019-02-10T13:42:38.629Z,64.20
2019-02-10T13:45:27.743Z,63.90
2019-02-10T13:48:17.264Z,63.90
2019-02-10T13:51:06.230Z,63.30
2019-02-10T13:53:55.174Z,63.70
2019-02-10T13:56:43.981Z,63.50
2019-02-10T13:59:32.370Z,63.60
2019-02-10T14:02:21.274Z,63.10
2019-02-10T14:05:10.837Z,63.10
2019-02-10T14:07:58.715Z,62.40
2019-02-10T14:10:48.042Z,62.50
2019-02-10T14:13:36.595Z,62.70
2019-02-10T14:16:26.117Z,62.60
2019-02-10T14:19:14.822Z,62.60
2019-02-10T14:22:03.447Z,62.30
2019-02-10T14:24:52.306Z,62.20
2019-02-10T14:27:40.994Z,62.30
2019-02-10T14:30:30.329Z,62.20
2019-02-10T14:33:23.051Z,62.50
2019-02-10T14:36:13.792Z,62.90
2019-02-10T14:39:05.694Z,63.60
2019-02-10T14:41:54.326Z,64.10
2019-02-10T14:44:43.386Z,65.60
2019-02-10T14:47:32.306Z,67.00
2019-02-10T14:50:22.577Z,68.40
2019-02-10T14:53:12.688Z,69.20
2019-02-10T14:56:00.946Z,71.80
2019-02-10T14:58:49.733Z,80.10
2019-02-10T15:01:39.134Z,84.30
2019-02-10T15:04:29.353Z,89.40
2019-02-10T15:07:25.060Z,91.20
2019-02-10T15:10:11.901Z,92.40
2019-02-10T15:13:01.024Z,94.30
2019-02-10T15:15:50.906Z,95.30
2019-02-10T15:18:39.539Z,95.20
2019-02-10T15:21:29.181Z,95.10
2019-02-10T15:24:17.410Z,95.40
2019-02-10T15:27:06.609Z,95.00
2019-02-10T15:29:55.354Z,95.80
2019-02-10T15:35:38.560Z,96.80
2019-02-10T15:38:27.431Z,96.90
2019-02-10T15:41:16.258Z,97.20
2019-02-10T15:44:05.177Z,97.00
2019-02-10T15:46:54.219Z,96.90
2019-02-10T15:49:42.639Z,97.00
2019-02-10T15:52:32.735Z,97.00
2019-02-10T15:55:20.814Z,97.00
2019-02-10T15:58:08.658Z,97.30
2019-02-10T16:01:02.966Z,97.50
2019-02-10T16:03:51.594Z,98.00
2019-02-10T16:06:41.394Z,98.50
2019-02-10T16:09:30.614Z,98.90
2019-02-10T16:12:20.390Z,99.10
2019-02-10T16:15:11.366Z,99.30
2019-02-10T16:18:00.722Z,99.20
2019-02-10T16:20:51.769Z,99.00
2019-02-10T16:23:40.247Z,98.90
2019-02-10T16:26:28.850Z,99.30
2019-02-10T16:29:18.669Z,99.60
2019-02-10T16:32:07.432Z,99.50
2019-02-10T16:34:56.168Z,99.10
2019-02-10T16:37:46.412Z,99.10
2019-02-10T16:40:34.705Z,98.90
2019-02-10T16:43:23.192Z,98.80
2019-02-10T16:46:11.563Z,98.80
2019-02-10T16:49:01.247Z,98.90
2019-02-10T16:51:51.243Z,98.90
2019-02-10T16:54:39.424Z,98.70
2019-02-10T16:57:29.185Z,98.50
2019-02-10T17:00:22.104Z,98.40
2019-02-10T17:03:11.275Z,98.00
2019-02-10T17:06:00.315Z,99.40
2019-02-10T17:08:49.339Z,99.90
2019-02-10T17:11:40.933Z,99.90
2019-02-10T17:14:29.494Z,99.90
2019-02-10T17:17:18.914Z,99.90
2019-02-10T17:20:09.288Z,99.90
2019-02-10T17:22:59.095Z,99.90
2019-02-10T17:25:46.951Z,99.90
2019-02-10T17:28:36.487Z,99.90
2019-02-10T17:31:29.066Z,99.90
2019-02-10T17:34:18.362Z,99.90
2019-02-10T17:37:07.056Z,99.90
2019-02-10T17:39:54.907Z,99.90
2019-02-10T17:42:43.463Z,99.90
2019-02-10T17:45:32.790Z,99.90
2019-02-10T17:48:22.175Z,99.90
2019-02-10T17:51:12.052Z,99.90
2019-02-10T17:54:01.542Z,99.90
2019-02-10T17:56:50.768Z,99.90
2019-02-10T17:59:38.483Z,99.90
2019-02-10T18:02:27.693Z,99.90
2019-02-10T18:05:16.316Z,99.90
2019-02-10T18:08:04.702Z,99.90
2019-02-10T18:10:53.976Z,99.90
2019-02-10T18:13:42.823Z,99.90
2019-02-10T18:16:54.355Z,99.90
2019-02-10T18:19:50.906Z,99.90
2019-02-10T18:23:16.668Z,99.90
2019-02-10T18:26:20.104Z,99.90
2019-02-10T18:29:26.644Z,99.90
2019-02-10T18:32:26.015Z,99.90
2019-02-10T18:35:33.050Z,99.90
2019-02-10T18:38:40.391Z,99.90
2019-02-10T18:41:47.725Z,99.90
2019-02-10T18:44:55.714Z,99.90
2019-02-10T18:48:08.746Z,99.90
2019-02-10T18:51:12.912Z,99.90
2019-02-10T18:54:20.946Z,99.90
2019-02-10T18:57:23.890Z,99.90
2019-02-10T19:00:31.089Z,99.90
2019-02-10T19:03:38.611Z,99.90
2019-02-10T19:06:48.869Z,99.90
2019-02-10T19:10:08.732Z,99.90
2019-02-10T19:13:05.017Z,99.90
2019-02-10T19:16:28.483Z,99.90
2019-02-10T19:19:29.189Z,99.90
2019-02-10T19:22:46.534Z,99.90
2019-02-10T19:25:57.810Z,99.90
2019-02-10T19:29:12.559Z,99.90
2019-02-10T19:32:11.548Z,99.90
2019-02-10T19:35:36.045Z,99.90
2019-02-10T19:38:35.916Z,99.90
2019-02-10T19:41:55.362Z,99.90
2019-02-10T19:44:51.167Z,99.90
2019-02-10T19:48:06.505Z,99.90
2019-02-10T19:51:12.972Z,99.90
2019-02-10T19:54:30.691Z,99.90
2019-02-10T19:57:25.705Z,99.90
2019-02-10T20:00:25.541Z,99.90
2019-02-10T20:03:34.034Z,99.90
2019-02-10T20:06:41.871Z,99.90
2019-02-10T20:09:38.018Z,99.90
2019-02-10T20:12:31.684Z,99.90
2019-02-10T20:15:31.807Z,99.90
2019-02-10T20:18:36.802Z,99.90
2019-02-10T20:21:37.044Z,99.90
2019-02-10T20:24:51.145Z,99.90
2019-02-10T20:28:11.010Z,99.90
2019-02-10T20:31:09.070Z,99.90
2019-02-10T20:34:26.131Z,99.90
2019-02-10T20:37:21.050Z,99.80
2019-02-10T20:40:18.926Z,99.90
2019-02-10T20:43:42.693Z,99.90
2019-02-10T20:46:59.878Z,99.80
2019-02-10T20:50:09.009Z,99.70
2019-02-10T20:53:19.709Z,99.60
2019-02-10T20:56:19.652Z,99.00
2019-02-10T20:59:28.254Z,99.00
2019-02-10T21:02:37.361Z,98.50
2019-02-10T21:05:48.669Z,98.10
2019-02-10T21:09:02.930Z,98.50
2019-02-10T21:14:44.185Z,98.30
2019-02-10T21:17:50.699Z,98.30
2019-02-10T21:20:55.324Z,98.10
2019-02-10T21:24:03.283Z,97.70
2019-02-10T21:27:09.640Z,97.70
2019-02-10T21:30:04.251Z,97.80
2019-02-10T21:35:56.359Z,97.50
2019-02-10T21:39:14.654Z,97.40
2019-02-10T21:42:29.116Z,97.50
2019-02-10T21:45:30.263Z,97.30
2019-02-10T21:48:23.318Z,97.30
2019-02-10T21:51:12.618Z,97.00
2019-02-10T21:54:01.472Z,97.10
2019-02-10T21:56:50.571Z,97.30
2019-02-10T21:59:39.609Z,97.20
2019-02-10T22:02:28.250Z,97.10
2019-02-10T22:05:17.982Z,97.30
2019-02-10T22:08:05.962Z,97.50
2019-02-10T22:10:55.234Z,97.40
2019-02-10T22:13:43.691Z,97.90
2019-02-10T22:16:32.083Z,98.60
2019-02-10T22:19:21.027Z,98.80
2019-02-10T22:22:09.114Z,98.90
2019-02-10T22:24:57.284Z,99.30
2019-02-10T22:27:45.951Z,98.50
2019-02-10T22:30:34.817Z,98.70
2019-02-10T22:33:23.210Z,99.10
2019-02-10T22:36:11.425Z,99.30
2019-02-10T22:38:59.429Z,99.80
2019-02-10T22:41:47.491Z,99.90
2019-02-10T22:44:35.750Z,99.90
2019-02-10T22:47:26.559Z,99.90
2019-02-10T22:50:14.755Z,99.90
2019-02-10T22:53:02.951Z,99.90
2019-02-10T22:55:51.254Z,99.90
2019-02-10T22:58:39.978Z,99.90
2019-02-10T23:01:35.590Z,99.90
2019-02-10T23:04:23.761Z,99.90
2019-02-10T23:07:12.373Z,99.90
2019-02-10T23:10:00.508Z,99.90
2019-02-10T23:12:53.601Z,99.90
2019-02-10T23:15:38.391Z,99.90
2019-02-10T23:18:26.628Z,99.90
2019-02-10T23:21:15.034Z,99.90
2019-02-10T23:24:03.410Z,99.90
2019-02-10T23:26:51.926Z,99.90
2019-02-10T23:29:40.454Z,99.90
2019-02-10T23:32:29.194Z,99.90
2019-02-10T23:35:17.770Z,99.90
2019-02-10T23:38:07.619Z,99.90
2019-02-10T23:40:55.952Z,99.90
2019-02-10T23:43:44.230Z,99.90
2019-02-10T23:46:32.485Z,99.90
2019-02-10T23:49:20.403Z,99.90
2019-02-10T23:52:12.735Z,99.90
2019-02-10T23:55:00.834Z,99.90
2019-02-10T23:57:48.460Z,99.90
